DFWGD TNCS-TNCM
Flight info
| Callsign | DFWGD |
|---|---|
| Flight time | 0h 15m |
| Altitude | 5000 |
| Route | PJM |
| Aircraft | PC12/L-SDFGRWY/S |
Departure
| Time | 2026-04-21 12:14 |
|---|---|
| Airport | Juancho E. Yrausquin Airport (TNCS) |
Arrival
| Time | 2026-04-21 12:30 |
|---|---|
| Airport | Princess Juliana International Airport (TNCM) |
| Time | Latitude | Longitude | Altitude | Speed | Heading |
|---|---|---|---|---|---|
| 2026-04-21 12:01 | 17.64467 | -63.22009 | 124 ft | 0 kts | 293° |
| 2026-04-21 12:10 | 17.64473 | -63.22022 | 128 ft | 5 kts | 293° |
| 2026-04-21 12:10 | 17.64498 | -63.22033 | 130 ft | 0 kts | 30° |
| 2026-04-21 12:12 | 17.64500 | -63.22032 | 130 ft | 3 kts | 27° |
| 2026-04-21 12:12 | 17.64541 | -63.22060 | 132 ft | 15 kts | 286° |
| 2026-04-21 12:12 | 17.64570 | -63.22136 | 138 ft | 1 kts | 290° |
| 2026-04-21 12:12 | 17.64573 | -63.22143 | 139 ft | 6 kts | 291° |
| 2026-04-21 12:13 | 17.64614 | -63.22211 | 142 ft | 10 kts | 292° |
| 2026-04-21 12:13 | 17.64600 | -63.22222 | 142 ft | 1 kts | 107° |
| 2026-04-21 12:13 | 17.64599 | -63.22209 | 142 ft | 0 kts | 112° |
| 2026-04-21 12:14 | 17.64474 | -63.21867 | 138 ft | 79 kts | 105° |
| 2026-04-21 12:14 | 17.64325 | -63.21482 | 346 ft | 91 kts | 117° |
| 2026-04-21 12:14 | 17.63639 | -63.21263 | 631 ft | 129 kts | 179° |
| 2026-04-21 12:14 | 17.62685 | -63.21363 | 1009 ft | 147 kts | 182° |
| 2026-04-21 12:15 | 17.61665 | -63.21464 | 1579 ft | 153 kts | 181° |
| 2026-04-21 12:15 | 17.60778 | -63.22021 | 2217 ft | 159 kts | 240° |
| 2026-04-21 12:15 | 17.60772 | -63.23169 | 2762 ft | 163 kts | 288° |
| 2026-04-21 12:15 | 17.61338 | -63.24212 | 3155 ft | 178 kts | 313° |
| 2026-04-21 12:16 | 17.62266 | -63.25001 | 3979 ft | 142 kts | 333° |
| 2026-04-21 12:16 | 17.62780 | -63.25289 | 5088 ft | 109 kts | 332° |
| 2026-04-21 12:16 | 17.63586 | -63.25718 | 5357 ft | 133 kts | 337° |
| 2026-04-21 12:16 | 17.64439 | -63.26129 | 5904 ft | 141 kts | 337° |
| 2026-04-21 12:17 | 17.65376 | -63.26575 | 6350 ft | 154 kts | 337° |
| 2026-04-21 12:17 | 17.66445 | -63.26825 | 6762 ft | 163 kts | 1° |
| 2026-04-21 12:17 | 17.67616 | -63.26812 | 7174 ft | 173 kts | 2° |
| 2026-04-21 12:17 | 17.68854 | -63.26856 | 7566 ft | 187 kts | 357° |
| 2026-04-21 12:18 | 17.70216 | -63.26960 | 7966 ft | 204 kts | 357° |
| 2026-04-21 12:18 | 17.71676 | -63.27083 | 8373 ft | 216 kts | 356° |
| 2026-04-21 12:18 | 17.73186 | -63.27205 | 8654 ft | 228 kts | 357° |
| 2026-04-21 12:18 | 17.74707 | -63.27329 | 8144 ft | 215 kts | 356° |
| 2026-04-21 12:19 | 17.76229 | -63.27450 | 7405 ft | 221 kts | 357° |
| 2026-04-21 12:19 | 17.77737 | -63.27572 | 6815 ft | 219 kts | 358° |
| 2026-04-21 12:19 | 17.79276 | -63.27697 | 6163 ft | 219 kts | 356° |
| 2026-04-21 12:19 | 17.80787 | -63.27819 | 5548 ft | 216 kts | 357° |
| 2026-04-21 12:20 | 17.82265 | -63.27939 | 5113 ft | 208 kts | 359° |
| 2026-04-21 12:20 | 17.83629 | -63.28053 | 4990 ft | 183 kts | 359° |
| 2026-04-21 12:20 | 17.84799 | -63.28148 | 4990 ft | 164 kts | 358° |
| 2026-04-21 12:20 | 17.86016 | -63.28240 | 5000 ft | 180 kts | 359° |
| 2026-04-21 12:21 | 17.87273 | -63.28342 | 5011 ft | 186 kts | 359° |
| 2026-04-21 12:21 | 17.88565 | -63.28448 | 5011 ft | 186 kts | 360° |
| 2026-04-21 12:21 | 17.89853 | -63.28552 | 5013 ft | 186 kts | 359° |
| 2026-04-21 12:21 | 17.91103 | -63.28654 | 4630 ft | 180 kts | 358° |
| 2026-04-21 12:22 | 17.92402 | -63.28756 | 3987 ft | 191 kts | 359° |
| 2026-04-21 12:22 | 17.93697 | -63.28863 | 3673 ft | 181 kts | 359° |
| 2026-04-21 12:22 | 17.94914 | -63.28962 | 3414 ft | 170 kts | 358° |
| 2026-04-21 12:22 | 17.96044 | -63.29055 | 3151 ft | 155 kts | 0° |
| 2026-04-21 12:23 | 17.97177 | -63.29143 | 2901 ft | 171 kts | 359° |
| 2026-04-21 12:23 | 17.98371 | -63.29240 | 2664 ft | 171 kts | 359° |
| 2026-04-21 12:23 | 17.99526 | -63.29269 | 2609 ft | 160 kts | 13° |
| 2026-04-21 12:23 | 18.00478 | -63.28895 | 2615 ft | 138 kts | 35° |
| 2026-04-21 12:24 | 18.01172 | -63.28283 | 2608 ft | 125 kts | 52° |
| 2026-04-21 12:24 | 18.01626 | -63.27515 | 2600 ft | 124 kts | 69° |
| 2026-04-21 12:24 | 18.01825 | -63.26703 | 2593 ft | 105 kts | 83° |
| 2026-04-21 12:24 | 18.01928 | -63.25977 | 2594 ft | 100 kts | 80° |
| 2026-04-21 12:25 | 18.02041 | -63.25217 | 2501 ft | 109 kts | 80° |
| 2026-04-21 12:25 | 18.02149 | -63.24456 | 2358 ft | 102 kts | 81° |
| 2026-04-21 12:25 | 18.02257 | -63.23720 | 2222 ft | 102 kts | 82° |
| 2026-04-21 12:25 | 18.02362 | -63.22990 | 2099 ft | 103 kts | 81° |
| 2026-04-21 12:26 | 18.02469 | -63.22253 | 1968 ft | 98 kts | 81° |
| 2026-04-21 12:26 | 18.02570 | -63.21568 | 1850 ft | 95 kts | 81° |
| 2026-04-21 12:26 | 18.02671 | -63.20863 | 1726 ft | 101 kts | 81° |
| 2026-04-21 12:26 | 18.02777 | -63.20122 | 1586 ft | 105 kts | 81° |
| 2026-04-21 12:27 | 18.02886 | -63.19357 | 1434 ft | 104 kts | 81° |
| 2026-04-21 12:27 | 18.02991 | -63.18630 | 1288 ft | 97 kts | 83° |
| 2026-04-21 12:27 | 18.03092 | -63.17916 | 1161 ft | 100 kts | 83° |
| 2026-04-21 12:27 | 18.03194 | -63.17190 | 1026 ft | 102 kts | 80° |
| 2026-04-21 12:28 | 18.03299 | -63.16458 | 891 ft | 99 kts | 81° |
| 2026-04-21 12:28 | 18.03397 | -63.15770 | 748 ft | 92 kts | 81° |
| 2026-04-21 12:28 | 18.03492 | -63.15120 | 694 ft | 87 kts | 83° |
| 2026-04-21 12:28 | 18.03582 | -63.14492 | 711 ft | 91 kts | 81° |
| 2026-04-21 12:29 | 18.03671 | -63.13757 | 511 ft | 102 kts | 79° |
| 2026-04-21 12:29 | 18.03788 | -63.13088 | 312 ft | 89 kts | 83° |
| 2026-04-21 12:29 | 18.03879 | -63.12420 | 157 ft | 94 kts | 79° |
| 2026-04-21 12:29 | 18.03963 | -63.11789 | 52 ft | 90 kts | 83° |
| 2026-04-21 12:30 | 18.04058 | -63.11157 | 22 ft | 81 kts | 81° |
| 2026-04-21 12:30 | 18.04113 | -63.10758 | 17 ft | 14 kts | 83° |
| 2026-04-21 12:30 | 18.04182 | -63.10743 | 18 ft | 15 kts | 351° |
| 2026-04-21 12:30 | 18.04185 | -63.10829 | 18 ft | 19 kts | 266° |
| 2026-04-21 12:31 | 18.04186 | -63.10910 | 18 ft | 7 kts | 261° |
| 2026-04-21 12:31 | 18.04190 | -63.10934 | 18 ft | 0 kts | 301° |
| 2026-04-21 12:31 | 18.04192 | -63.10938 | 18 ft | 0 kts | 304° |